createdAt,value
2023-01-26T00:01:56.707Z,6.40
2023-01-26T00:04:23.919Z,6.40
2023-01-26T00:06:51.211Z,6.30
2023-01-26T00:09:18.449Z,6.40
2023-01-26T00:11:45.814Z,6.40
2023-01-26T00:14:13.059Z,6.30
2023-01-26T00:16:40.754Z,6.40
2023-01-26T00:19:08.081Z,6.30
2023-01-26T00:21:35.581Z,6.30
2023-01-26T00:24:04.808Z,6.30
2023-01-26T00:26:32.413Z,6.30
2023-01-26T00:29:00.510Z,6.40
2023-01-26T00:31:28.604Z,6.40
2023-01-26T00:33:57.141Z,6.40
2023-01-26T00:36:30.447Z,6.20
2023-01-26T00:38:57.712Z,6.20
2023-01-26T00:41:43.459Z,6.20
2023-01-26T00:44:10.726Z,6.30
2023-01-26T00:46:38.435Z,6.30
2023-01-26T00:49:05.805Z,6.20
2023-01-26T00:51:32.964Z,6.20
2023-01-26T00:54:00.099Z,6.10
2023-01-26T00:56:28.318Z,6.20
2023-01-26T00:58:55.606Z,6.20
2023-01-26T01:01:22.786Z,6.20
2023-01-26T01:03:52.299Z,6.10
2023-01-26T01:06:19.657Z,6.10
2023-01-26T01:08:47.158Z,6.00
2023-01-26T01:11:14.678Z,6.00
2023-01-26T01:13:41.942Z,5.90
2023-01-26T01:16:12.048Z,6.00
2023-01-26T01:18:40.049Z,6.00
2023-01-26T01:21:08.958Z,6.00
2023-01-26T01:23:36.594Z,6.00
2023-01-26T01:26:05.332Z,6.00
2023-01-26T01:28:34.049Z,6.00
2023-01-26T01:31:05.413Z,6.10
2023-01-26T01:33:32.846Z,6.20
2023-01-26T01:36:02.189Z,5.90
2023-01-26T01:38:30.105Z,5.90
2023-01-26T01:40:57.264Z,5.90
2023-01-26T01:43:25.695Z,5.90
2023-01-26T01:45:54.101Z,5.80
2023-01-26T01:48:43.489Z,5.90
2023-01-26T01:51:34.783Z,5.80
2023-01-26T01:54:10.916Z,5.80
2023-01-26T01:56:41.948Z,5.90
2023-01-26T01:59:11.647Z,5.70
2023-01-26T02:01:38.961Z,5.70
2023-01-26T02:04:07.770Z,5.70
2023-01-26T02:06:42.495Z,5.80
2023-01-26T02:09:32.601Z,5.80
2023-01-26T02:12:01.022Z,5.70
2023-01-26T02:14:29.645Z,5.60
2023-01-26T02:16:56.746Z,5.70
2023-01-26T02:19:29.579Z,5.60
2023-01-26T02:22:01.347Z,5.60
2023-01-26T02:24:35.068Z,5.60
2023-01-26T02:27:02.792Z,5.70
2023-01-26T02:29:30.692Z,5.60
2023-01-26T02:31:58.222Z,5.70
2023-01-26T02:34:28.969Z,5.70
2023-01-26T02:36:58.965Z,5.60
2023-01-26T02:39:40.764Z,5.60
2023-01-26T02:42:30.494Z,5.60
2023-01-26T02:44:58.254Z,5.70
2023-01-26T02:47:25.531Z,5.70
2023-01-26T02:49:52.806Z,5.60
2023-01-26T02:52:26.176Z,5.60
2023-01-26T02:55:13.010Z,5.60
2023-01-26T02:57:40.924Z,5.60
2023-01-26T03:00:12.503Z,5.50
2023-01-26T03:02:42.162Z,5.50
2023-01-26T03:05:09.745Z,5.60
2023-01-26T03:07:37.045Z,5.60
2023-01-26T03:10:05.397Z,5.60
2023-01-26T03:12:32.834Z,5.60
2023-01-26T03:15:18.929Z,5.50
2023-01-26T03:17:46.155Z,5.50
2023-01-26T03:20:31.996Z,5.50
2023-01-26T03:23:17.919Z,5.50
2023-01-26T03:26:03.923Z,5.50
2023-01-26T03:28:31.109Z,5.50
2023-01-26T03:30:58.804Z,5.40
2023-01-26T03:33:26.065Z,5.50
2023-01-26T03:35:55.023Z,5.40
2023-01-26T03:38:22.275Z,5.40
2023-01-26T03:41:07.867Z,5.30
2023-01-26T03:43:53.868Z,5.20
2023-01-26T03:46:39.698Z,5.20
2023-01-26T03:49:25.746Z,5.20
2023-01-26T03:52:11.679Z,5.20
2023-01-26T03:54:57.623Z,5.00
2023-01-26T03:57:30.039Z,5.00
2023-01-26T03:59:57.259Z,5.00
2023-01-26T04:02:43.124Z,5.20
2023-01-26T04:05:28.934Z,5.10
2023-01-26T04:08:19.722Z,5.00
2023-01-26T04:10:47.003Z,5.00
2023-01-26T04:13:32.844Z,4.90
2023-01-26T04:16:18.453Z,5.00
2023-01-26T04:19:04.532Z,5.00
2023-01-26T04:21:35.974Z,5.00
2023-01-26T04:24:09.979Z,5.00
2023-01-26T04:26:37.850Z,5.00
2023-01-26T04:29:15.448Z,5.10
2023-01-26T04:31:43.327Z,5.00
2023-01-26T04:34:14.090Z,5.00
2023-01-26T04:36:42.779Z,5.10
2023-01-26T04:39:10.227Z,5.00
2023-01-26T04:41:37.417Z,5.20
2023-01-26T04:44:04.872Z,5.00
2023-01-26T04:46:33.416Z,5.00
2023-01-26T04:49:00.759Z,4.90
2023-01-26T04:51:28.625Z,5.00
2023-01-26T04:53:56.788Z,5.00
2023-01-26T04:56:25.194Z,5.00
2023-01-26T04:58:53.302Z,4.90
2023-01-26T05:01:20.735Z,4.80
2023-01-26T05:03:48.542Z,4.90
2023-01-26T05:06:16.314Z,4.90
2023-01-26T05:08:43.657Z,5.00
2023-01-26T05:11:11.337Z,4.90
2023-01-26T05:13:39.805Z,4.90
2023-01-26T05:16:08.196Z,4.90
2023-01-26T05:18:35.511Z,4.90
2023-01-26T05:21:03.209Z,5.00
2023-01-26T05:23:30.512Z,5.00
2023-01-26T05:25:57.770Z,5.00
2023-01-26T05:28:25.221Z,5.10
2023-01-26T05:30:52.453Z,5.20
2023-01-26T05:33:22.584Z,5.00
2023-01-26T05:35:50.375Z,5.00
2023-01-26T05:38:18.025Z,5.00
2023-01-26T05:40:45.589Z,5.10
2023-01-26T05:43:17.331Z,5.00
2023-01-26T05:45:44.770Z,4.90
2023-01-26T05:48:12.508Z,5.00
2023-01-26T05:50:39.784Z,4.90
2023-01-26T05:53:09.017Z,5.00
2023-01-26T05:55:36.943Z,5.10
2023-01-26T05:58:04.174Z,4.90
2023-01-26T06:00:31.240Z,4.90
2023-01-26T06:02:58.396Z,4.80
2023-01-26T06:05:25.699Z,4.80
2023-01-26T06:07:52.862Z,4.80
2023-01-26T06:10:20.233Z,4.80
2023-01-26T06:12:47.499Z,4.70
2023-01-26T06:15:14.890Z,4.80
2023-01-26T06:17:42.186Z,5.20
2023-01-26T06:20:10.442Z,5.30
2023-01-26T06:22:38.015Z,5.50
2023-01-26T06:25:05.746Z,5.60
2023-01-26T06:27:34.294Z,5.30
2023-01-26T06:30:01.728Z,5.00
2023-01-26T06:32:29.694Z,5.00
2023-01-26T06:34:57.044Z,4.80
2023-01-26T06:37:24.302Z,4.80
2023-01-26T06:39:51.501Z,4.80
2023-01-26T06:42:18.824Z,4.90
2023-01-26T06:44:46.205Z,4.90
2023-01-26T06:47:18.022Z,4.70
2023-01-26T06:49:45.305Z,4.80
2023-01-26T06:52:32.730Z,4.80
2023-01-26T06:55:01.287Z,4.80
2023-01-26T06:57:28.727Z,4.70
2023-01-26T06:59:57.703Z,4.70
2023-01-26T07:02:24.979Z,5.40
2023-01-26T07:04:52.652Z,5.90
2023-01-26T07:07:19.999Z,6.70
2023-01-26T07:09:50.292Z,6.30
2023-01-26T07:12:17.529Z,5.50
2023-01-26T07:14:44.843Z,5.20
2023-01-26T07:17:12.171Z,5.00
2023-01-26T07:19:39.441Z,5.00
2023-01-26T07:22:06.659Z,4.90
2023-01-26T07:24:35.993Z,4.90
2023-01-26T07:27:04.544Z,4.70
2023-01-26T07:29:31.767Z,4.80
2023-01-26T07:31:59.166Z,4.80
2023-01-26T07:34:26.461Z,4.90
2023-01-26T07:36:53.568Z,4.90
2023-01-26T07:39:20.774Z,4.90
2023-01-26T07:41:49.197Z,4.90
2023-01-26T07:44:16.883Z,5.00
2023-01-26T07:46:45.624Z,4.90
2023-01-26T07:49:14.230Z,5.00
2023-01-26T07:51:47.660Z,5.00
2023-01-26T07:54:15.011Z,4.80
2023-01-26T07:56:42.262Z,4.90
2023-01-26T07:59:11.716Z,4.90
2023-01-26T08:01:39.761Z,5.00
2023-01-26T08:04:07.653Z,5.00
2023-01-26T08:06:34.997Z,5.00
2023-01-26T08:09:02.271Z,4.90
2023-01-26T08:11:29.514Z,4.90
2023-01-26T08:13:58.137Z,4.90
2023-01-26T08:16:25.543Z,4.90
2023-01-26T08:18:52.721Z,4.80
2023-01-26T08:21:27.936Z,4.80
2023-01-26T08:23:56.125Z,4.80
2023-01-26T08:26:23.371Z,4.90
2023-01-26T08:28:50.920Z,5.00
2023-01-26T08:31:21.209Z,4.80
2023-01-26T08:33:50.968Z,4.90
2023-01-26T08:36:22.114Z,4.90
2023-01-26T08:38:50.949Z,4.80
2023-01-26T08:41:20.680Z,4.90
2023-01-26T08:43:48.266Z,4.90
2023-01-26T08:46:16.025Z,4.90
2023-01-26T08:48:51.354Z,5.00
2023-01-26T08:51:18.665Z,5.00
2023-01-26T08:53:46.004Z,4.80
2023-01-26T08:56:13.659Z,4.90
2023-01-26T08:58:41.136Z,5.20
2023-01-26T09:01:12.593Z,5.20
2023-01-26T09:03:40.250Z,5.10
2023-01-26T09:06:09.638Z,5.10
2023-01-26T09:08:37.344Z,5.00
2023-01-26T09:11:07.165Z,5.20
2023-01-26T09:13:34.660Z,5.10
2023-01-26T09:16:24.451Z,5.00
2023-01-26T09:18:54.782Z,5.00
2023-01-26T09:21:24.061Z,5.00
2023-01-26T09:23:51.230Z,5.00
2023-01-26T09:26:18.710Z,5.10
2023-01-26T09:28:49.361Z,5.00
2023-01-26T09:31:16.706Z,5.10
2023-01-26T09:33:45.233Z,5.10
2023-01-26T09:36:13.243Z,5.00
2023-01-26T09:38:40.571Z,5.00
2023-01-26T09:41:21.237Z,5.00
2023-01-26T09:43:50.229Z,4.80
2023-01-26T09:46:21.132Z,4.90
2023-01-26T09:49:27.074Z,5.00
2023-01-26T09:52:14.646Z,5.00
2023-01-26T09:54:50.109Z,5.00
2023-01-26T09:57:41.593Z,5.10
2023-01-26T10:00:15.218Z,5.10
2023-01-26T10:02:50.304Z,5.20
2023-01-26T10:05:46.544Z,5.00
2023-01-26T10:08:16.890Z,5.00
2023-01-26T10:10:59.278Z,4.90
2023-01-26T10:13:28.059Z,5.00
2023-01-26T10:16:04.455Z,5.00
2023-01-26T10:18:46.437Z,5.00
2023-01-26T10:21:24.123Z,4.90
2023-01-26T10:23:57.579Z,4.70
2023-01-26T10:26:24.723Z,4.80
2023-01-26T10:28:53.150Z,4.80
2023-01-26T10:31:30.821Z,5.00
2023-01-26T10:33:59.880Z,4.80
2023-01-26T10:36:31.919Z,4.90
2023-01-26T10:39:07.866Z,5.40
2023-01-26T10:41:35.518Z,5.80
2023-01-26T10:44:28.096Z,6.50
2023-01-26T10:47:05.095Z,6.40
2023-01-26T10:49:32.680Z,6.30
2023-01-26T10:52:14.541Z,6.20
2023-01-26T10:54:44.865Z,6.40
2023-01-26T10:57:29.454Z,6.20
2023-01-26T11:00:08.364Z,6.30
2023-01-26T11:02:37.905Z,6.50
2023-01-26T11:05:08.041Z,6.40
2023-01-26T11:07:35.329Z,6.20
2023-01-26T11:10:32.135Z,5.90
2023-01-26T11:13:22.132Z,5.60
2023-01-26T11:16:17.194Z,5.50
2023-01-26T11:18:53.624Z,5.30
2023-01-26T11:21:33.484Z,5.10
2023-01-26T11:24:26.864Z,5.30
2023-01-26T11:27:09.176Z,5.20
2023-01-26T11:29:36.354Z,5.20
2023-01-26T11:32:34.834Z,5.30
2023-01-26T11:35:23.150Z,5.20
2023-01-26T11:38:15.854Z,5.10
2023-01-26T11:40:58.389Z,5.20
2023-01-26T11:44:08.544Z,5.10
2023-01-26T11:47:03.548Z,5.40
2023-01-26T11:50:01.324Z,5.50
2023-01-26T11:52:36.718Z,5.30
2023-01-26T11:55:25.347Z,5.40
2023-01-26T11:58:12.796Z,5.50
2023-01-26T12:00:44.495Z,5.50
2023-01-26T12:03:30.768Z,5.50
2023-01-26T12:06:02.688Z,5.50
2023-01-26T12:08:42.680Z,5.60
2023-01-26T12:11:25.719Z,5.60
2023-01-26T12:14:21.500Z,5.50
2023-01-26T12:17:11.496Z,5.60
2023-01-26T12:20:21.218Z,5.50
2023-01-26T12:23:18.628Z,5.60
2023-01-26T12:25:53.265Z,5.60
2023-01-26T12:28:29.310Z,5.60
2023-01-26T12:31:13.136Z,5.80
2023-01-26T12:33:40.739Z,5.80
2023-01-26T12:36:32.916Z,5.70
2023-01-26T12:39:12.238Z,5.80
2023-01-26T12:42:07.566Z,5.80
2023-01-26T12:44:44.244Z,5.90
2023-01-26T12:47:34.708Z,6.10
2023-01-26T12:50:26.396Z,6.20
2023-01-26T12:53:08.114Z,6.10
2023-01-26T12:56:22.261Z,6.00
2023-01-26T12:59:38.323Z,5.90
2023-01-26T13:02:25.421Z,5.90
2023-01-26T13:04:55.045Z,5.90
2023-01-26T13:07:40.963Z,5.90
2023-01-26T13:10:20.518Z,5.90
2023-01-26T13:12:50.376Z,5.90
2023-01-26T13:15:20.400Z,5.90
2023-01-26T13:18:01.289Z,6.00
2023-01-26T13:20:40.566Z,6.10
2023-01-26T13:23:48.517Z,6.10
2023-01-26T13:26:21.649Z,6.20
2023-01-26T13:28:50.041Z,6.20
2023-01-26T13:31:33.119Z,6.10
2023-01-26T13:34:06.477Z,6.20
2023-01-26T13:36:39.202Z,6.20
2023-01-26T13:39:15.459Z,6.30
2023-01-26T13:41:47.805Z,6.30
2023-01-26T13:44:20.993Z,6.30
2023-01-26T13:47:23.410Z,6.30
2023-01-26T13:49:51.111Z,6.30
2023-01-26T13:52:25.872Z,6.30
2023-01-26T13:54:56.866Z,6.30
2023-01-26T13:57:27.749Z,6.20
2023-01-26T13:59:56.622Z,6.20
2023-01-26T14:02:31.470Z,6.20
2023-01-26T14:04:59.822Z,6.20
2023-01-26T14:07:31.277Z,6.30
2023-01-26T14:10:01.884Z,6.20
2023-01-26T14:12:36.793Z,6.20
2023-01-26T14:15:23.393Z,6.20
2023-01-26T14:17:58.792Z,6.30
2023-01-26T14:20:39.739Z,6.30
2023-01-26T14:23:59.232Z,6.30
2023-01-26T14:26:33.424Z,6.30
2023-01-26T14:29:10.761Z,6.20
2023-01-26T14:31:38.025Z,6.20
2023-01-26T14:34:13.285Z,6.10
2023-01-26T14:36:43.096Z,6.10
2023-01-26T14:39:25.645Z,6.10
2023-01-26T14:41:53.017Z,6.10
2023-01-26T14:44:20.258Z,6.00
2023-01-26T14:46:58.276Z,6.10
2023-01-26T14:49:43.040Z,6.10
2023-01-26T14:52:40.207Z,6.20
2023-01-26T14:55:35.327Z,6.20
2023-01-26T14:58:04.710Z,6.20
2023-01-26T15:00:35.723Z,6.20
2023-01-26T15:03:37.805Z,6.00
2023-01-26T15:06:18.979Z,6.40
2023-01-26T15:09:06.102Z,6.70
2023-01-26T15:11:58.441Z,6.50
2023-01-26T15:14:47.666Z,6.40
2023-01-26T15:18:00.537Z,6.30
2023-01-26T15:20:27.934Z,6.30
2023-01-26T15:22:55.572Z,6.20
2023-01-26T15:25:31.337Z,6.20
2023-01-26T15:28:00.592Z,6.10
2023-01-26T15:30:35.751Z,6.10
2023-01-26T15:33:03.606Z,6.10
2023-01-26T15:35:33.040Z,6.10
2023-01-26T15:38:05.880Z,6.20
2023-01-26T15:40:35.780Z,6.20
2023-01-26T15:43:18.219Z,6.10
2023-01-26T15:45:57.605Z,6.10
2023-01-26T15:48:25.725Z,6.10
2023-01-26T15:50:53.484Z,6.10
2023-01-26T15:53:22.174Z,6.10
2023-01-26T15:55:53.076Z,6.00
2023-01-26T15:58:20.468Z,6.00
2023-01-26T16:00:47.987Z,5.90
2023-01-26T16:03:20.212Z,5.90
2023-01-26T16:05:48.439Z,5.90
2023-01-26T16:08:19.394Z,5.90
2023-01-26T16:10:47.594Z,5.90
2023-01-26T16:13:18.505Z,5.90
2023-01-26T16:15:50.874Z,5.80
2023-01-26T16:18:18.488Z,5.80
2023-01-26T16:20:48.170Z,5.80
2023-01-26T16:23:26.695Z,5.80
2023-01-26T16:25:58.608Z,5.80
2023-01-26T16:28:26.176Z,5.90
2023-01-26T16:30:57.108Z,6.00
2023-01-26T16:33:25.087Z,6.10
2023-01-26T16:35:53.425Z,6.00
2023-01-26T16:38:22.757Z,5.90
2023-01-26T16:40:50.137Z,5.90
2023-01-26T16:43:23.670Z,5.90
2023-01-26T16:45:52.225Z,5.90
2023-01-26T16:48:21.725Z,5.90
2023-01-26T16:50:53.359Z,5.80
2023-01-26T16:53:23.490Z,5.80
2023-01-26T16:55:50.766Z,5.90
2023-01-26T16:58:18.053Z,5.70
2023-01-26T17:00:54.494Z,5.80
2023-01-26T17:03:26.567Z,5.70
2023-01-26T17:05:57.188Z,5.70
2023-01-26T17:08:24.410Z,5.70
2023-01-26T17:11:01.499Z,5.70
2023-01-26T17:13:34.750Z,5.70
2023-01-26T17:16:04.922Z,5.50
2023-01-26T17:18:34.783Z,5.60
2023-01-26T17:21:03.617Z,5.70
2023-01-26T17:23:32.917Z,5.70
2023-01-26T17:26:01.047Z,5.90
2023-01-26T17:28:28.454Z,5.90
2023-01-26T17:31:00.138Z,5.70
2023-01-26T17:33:29.871Z,6.00
2023-01-26T17:36:02.145Z,6.00
2023-01-26T17:38:29.472Z,5.90
2023-01-26T17:40:58.419Z,5.70
2023-01-26T17:43:27.977Z,5.70
2023-01-26T17:46:11.724Z,5.70
2023-01-26T17:48:40.145Z,5.60
2023-01-26T17:51:09.650Z,5.60
2023-01-26T17:53:41.194Z,5.60
2023-01-26T17:56:20.602Z,5.60
2023-01-26T17:58:51.410Z,5.50
2023-01-26T18:01:19.001Z,5.50
2023-01-26T18:03:51.962Z,5.50
2023-01-26T18:06:22.988Z,5.60
2023-01-26T18:08:55.752Z,5.60
2023-01-26T18:11:29.987Z,5.60
2023-01-26T18:14:00.697Z,5.80
2023-01-26T18:16:34.445Z,5.80
2023-01-26T18:19:07.110Z,5.80
2023-01-26T18:21:37.932Z,5.60
2023-01-26T18:24:26.119Z,5.50
2023-01-26T18:27:06.097Z,5.30
2023-01-26T18:29:52.253Z,5.30
2023-01-26T18:32:19.580Z,5.30
2023-01-26T18:34:54.590Z,5.30
2023-01-26T18:37:21.882Z,5.20
2023-01-26T18:39:49.464Z,5.30
2023-01-26T18:42:16.623Z,5.30
2023-01-26T18:44:44.268Z,5.20
2023-01-26T18:47:20.760Z,5.10
2023-01-26T18:49:48.496Z,5.90
2023-01-26T18:52:28.564Z,5.70
2023-01-26T18:54:58.197Z,5.40
2023-01-26T18:57:30.244Z,5.30
2023-01-26T19:00:04.032Z,5.10
2023-01-26T19:02:33.874Z,5.10
2023-01-26T19:05:43.569Z,5.10
2023-01-26T19:08:18.260Z,5.10
2023-01-26T19:10:53.620Z,5.10
2023-01-26T19:13:25.766Z,4.90
2023-01-26T19:18:44.231Z,4.90
2023-01-26T19:21:13.640Z,5.00
2023-01-26T19:23:42.849Z,5.00
2023-01-26T19:26:14.473Z,4.90
2023-01-26T19:28:42.163Z,4.90
2023-01-26T19:31:12.148Z,4.90
2023-01-26T19:33:40.220Z,4.90
2023-01-26T19:36:11.882Z,4.80
2023-01-26T19:38:45.001Z,4.90
2023-01-26T19:41:12.537Z,4.80
2023-01-26T19:43:48.031Z,4.80
2023-01-26T19:46:18.099Z,4.80
2023-01-26T19:48:55.927Z,4.70
2023-01-26T19:51:25.739Z,4.60
2023-01-26T19:54:00.568Z,4.70
2023-01-26T19:56:30.766Z,4.60
2023-01-26T19:59:01.882Z,4.60
2023-01-26T20:01:34.305Z,4.70
2023-01-26T20:04:06.984Z,4.60
2023-01-26T20:06:37.519Z,4.70
2023-01-26T20:09:07.904Z,4.60
2023-01-26T20:11:36.637Z,4.60
2023-01-26T20:14:17.574Z,4.60
2023-01-26T20:16:49.516Z,4.40
2023-01-26T20:19:29.781Z,4.50
2023-01-26T20:22:02.911Z,4.50
2023-01-26T20:24:33.054Z,4.50
2023-01-26T20:27:00.490Z,4.60
2023-01-26T20:29:31.882Z,4.80
2023-01-26T20:32:02.020Z,4.70
2023-01-26T20:34:36.389Z,4.60
2023-01-26T20:37:04.326Z,4.60
2023-01-26T20:39:31.602Z,4.60
2023-01-26T20:41:58.955Z,4.50
2023-01-26T20:44:26.131Z,4.40
2023-01-26T20:46:53.391Z,4.20
2023-01-26T20:49:27.186Z,4.30
2023-01-26T20:51:55.993Z,4.30
2023-01-26T20:54:23.276Z,4.30
2023-01-26T20:56:52.164Z,4.30
2023-01-26T20:59:20.941Z,4.40
2023-01-26T21:01:51.469Z,4.30
2023-01-26T21:04:18.749Z,4.40
2023-01-26T21:06:47.440Z,4.40
2023-01-26T21:12:02.299Z,4.40
2023-01-26T21:14:35.589Z,4.50
2023-01-26T21:17:02.987Z,4.40
2023-01-26T21:19:35.546Z,4.40
2023-01-26T21:22:03.896Z,4.30
2023-01-26T21:24:36.876Z,4.30
2023-01-26T21:27:07.812Z,4.40
2023-01-26T21:29:42.958Z,4.40
2023-01-26T21:32:24.792Z,4.30
2023-01-26T21:35:05.491Z,4.30
2023-01-26T21:37:53.458Z,4.20
2023-01-26T21:40:30.801Z,4.30
2023-01-26T21:42:58.388Z,4.20
2023-01-26T21:45:50.323Z,4.40
2023-01-26T21:48:31.830Z,4.40
2023-01-26T21:51:18.191Z,4.40
2023-01-26T21:53:47.738Z,4.40
2023-01-26T21:56:17.580Z,4.40
2023-01-26T21:59:06.348Z,4.40
2023-01-26T22:01:38.781Z,4.40
2023-01-26T22:04:17.694Z,4.40
2023-01-26T22:06:51.635Z,4.40
2023-01-26T22:09:31.881Z,4.50
2023-01-26T22:11:59.099Z,4.40
2023-01-26T22:14:28.627Z,4.40
2023-01-26T22:16:55.894Z,4.50
2023-01-26T22:19:31.760Z,4.30
2023-01-26T22:21:59.085Z,4.30
2023-01-26T22:24:26.647Z,4.30
2023-01-26T22:26:55.740Z,4.30
2023-01-26T22:29:26.283Z,4.20
2023-01-26T22:31:56.478Z,4.30
2023-01-26T22:34:24.360Z,4.40
2023-01-26T22:37:11.548Z,4.40
2023-01-26T22:39:49.291Z,4.40
2023-01-26T22:42:24.853Z,4.40
2023-01-26T22:44:58.732Z,4.40
2023-01-26T22:47:32.852Z,4.40
2023-01-26T22:50:02.044Z,4.40
2023-01-26T22:52:32.772Z,4.40
2023-01-26T22:55:06.778Z,4.40
2023-01-26T22:57:35.506Z,4.30
2023-01-26T23:00:02.832Z,4.30
2023-01-26T23:02:33.601Z,4.40
2023-01-26T23:05:00.908Z,4.50
2023-01-26T23:07:34.033Z,4.60
2023-01-26T23:10:21.019Z,4.60
2023-01-26T23:12:57.047Z,4.60
2023-01-26T23:15:40.013Z,4.50
2023-01-26T23:18:16.216Z,4.40
2023-01-26T23:20:43.310Z,4.50
2023-01-26T23:23:18.267Z,4.50
2023-01-26T23:25:58.867Z,4.50
2023-01-26T23:28:31.803Z,4.50
2023-01-26T23:31:00.000Z,4.50
2023-01-26T23:33:32.241Z,4.40
2023-01-26T23:36:00.240Z,4.30
2023-01-26T23:38:29.831Z,4.40
2023-01-26T23:40:58.043Z,4.50
2023-01-26T23:43:28.077Z,4.60
2023-01-26T23:45:56.811Z,4.50
2023-01-26T23:48:25.686Z,4.50
2023-01-26T23:51:09.069Z,4.50
2023-01-26T23:53:37.785Z,4.50
2023-01-26T23:56:18.171Z,4.50
2023-01-26T23:58:50.853Z,4.40
